sensor_id;sensor_type;location;lat;lon;timestamp;P1;durP1;ratioP1;P2;durP2;ratioP2
16460;SDS011;8341;42.048;24.650;2022-10-16T00:01:04;6.22;;;5.22;;
16460;SDS011;8341;42.048;24.650;2022-10-16T00:03:32;5.22;;;4.72;;
16460;SDS011;8341;42.048;24.650;2022-10-16T00:06:00;6.88;;;4.90;;
16460;SDS011;8341;42.048;24.650;2022-10-16T00:08:28;5.10;;;4.63;;
16460;SDS011;8341;42.048;24.650;2022-10-16T00:10:58;5.90;;;4.65;;
16460;SDS011;8341;42.048;24.650;2022-10-16T00:13:26;6.03;;;5.25;;
16460;SDS011;8341;42.048;24.650;2022-10-16T00:15:56;8.02;;;5.20;;
16460;SDS011;8341;42.048;24.650;2022-10-16T00:18:24;6.45;;;5.18;;
16460;SDS011;8341;42.048;24.650;2022-10-16T00:20:52;7.07;;;5.10;;
16460;SDS011;8341;42.048;24.650;2022-10-16T00:23:19;5.72;;;5.22;;
16460;SDS011;8341;42.048;24.650;2022-10-16T00:25:53;7.13;;;5.03;;
16460;SDS011;8341;42.048;24.650;2022-10-16T00:28:22;6.38;;;4.85;;
16460;SDS011;8341;42.048;24.650;2022-10-16T00:30:49;6.63;;;5.47;;
16460;SDS011;8341;42.048;24.650;2022-10-16T00:33:17;5.25;;;4.78;;
16460;SDS011;8341;42.048;24.650;2022-10-16T00:35:44;5.22;;;4.63;;
16460;SDS011;8341;42.048;24.650;2022-10-16T00:38:11;5.10;;;4.60;;
16460;SDS011;8341;42.048;24.650;2022-10-16T00:40:38;6.03;;;4.72;;
16460;SDS011;8341;42.048;24.650;2022-10-16T00:43:09;6.88;;;5.45;;
16460;SDS011;8341;42.048;24.650;2022-10-16T00:45:40;8.05;;;5.30;;
16460;SDS011;8341;42.048;24.650;2022-10-16T00:48:08;8.32;;;4.97;;
16460;SDS011;8341;42.048;24.650;2022-10-16T00:50:41;6.05;;;5.25;;
16460;SDS011;8341;42.048;24.650;2022-10-16T00:53:09;5.57;;;5.03;;
16460;SDS011;8341;42.048;24.650;2022-10-16T00:55:38;9.45;;;5.55;;
16460;SDS011;8341;42.048;24.650;2022-10-16T00:58:05;7.38;;;5.22;;
16460;SDS011;8341;42.048;24.650;2022-10-16T01:00:32;7.57;;;5.53;;
16460;SDS011;8341;42.048;24.650;2022-10-16T01:03:00;5.90;;;4.82;;
16460;SDS011;8341;42.048;24.650;2022-10-16T01:05:30;6.25;;;5.22;;
16460;SDS011;8341;42.048;24.650;2022-10-16T01:08:05;7.10;;;5.35;;
16460;SDS011;8341;42.048;24.650;2022-10-16T01:10:40;9.27;;;5.10;;
16460;SDS011;8341;42.048;24.650;2022-10-16T01:13:14;5.90;;;5.15;;
16460;SDS011;8341;42.048;24.650;2022-10-16T01:15:47;6.88;;;5.93;;
16460;SDS011;8341;42.048;24.650;2022-10-16T01:18:21;8.13;;;5.70;;
16460;SDS011;8341;42.048;24.650;2022-10-16T01:20:58;6.03;;;5.35;;
16460;SDS011;8341;42.048;24.650;2022-10-16T01:23:35;8.60;;;5.32;;
16460;SDS011;8341;42.048;24.650;2022-10-16T01:26:20;8.27;;;5.60;;
16460;SDS011;8341;42.048;24.650;2022-10-16T01:29:01;7.90;;;6.22;;
16460;SDS011;8341;42.048;24.650;2022-10-16T01:31:34;6.25;;;5.30;;
16460;SDS011;8341;42.048;24.650;2022-10-16T01:34:05;7.82;;;5.05;;
16460;SDS011;8341;42.048;24.650;2022-10-16T01:36:38;7.65;;;5.28;;
16460;SDS011;8341;42.048;24.650;2022-10-16T01:39:09;5.57;;;4.97;;
16460;SDS011;8341;42.048;24.650;2022-10-16T01:41:39;5.35;;;4.68;;
16460;SDS011;8341;42.048;24.650;2022-10-16T01:44:11;6.32;;;5.45;;
16460;SDS011;8341;42.048;24.650;2022-10-16T01:46:46;8.13;;;5.15;;
16460;SDS011;8341;42.048;24.650;2022-10-16T01:49:15;7.47;;;5.40;;
16460;SDS011;8341;42.048;24.650;2022-10-16T01:51:44;9.48;;;5.45;;
16460;SDS011;8341;42.048;24.650;2022-10-16T01:54:14;7.15;;;5.28;;
16460;SDS011;8341;42.048;24.650;2022-10-16T01:56:45;8.35;;;5.78;;
16460;SDS011;8341;42.048;24.650;2022-10-16T01:59:16;6.53;;;5.47;;
16460;SDS011;8341;42.048;24.650;2022-10-16T02:01:47;9.52;;;5.63;;
16460;SDS011;8341;42.048;24.650;2022-10-16T02:04:19;5.93;;;5.32;;
16460;SDS011;8341;42.048;24.650;2022-10-16T02:06:50;7.85;;;5.57;;
16460;SDS011;8341;42.048;24.650;2022-10-16T02:09:18;6.47;;;5.22;;
16460;SDS011;8341;42.048;24.650;2022-10-16T02:11:46;6.45;;;5.55;;
16460;SDS011;8341;42.048;24.650;2022-10-16T02:14:15;7.55;;;5.82;;
16460;SDS011;8341;42.048;24.650;2022-10-16T02:16:43;6.65;;;5.80;;
16460;SDS011;8341;42.048;24.650;2022-10-16T02:19:12;7.97;;;5.75;;
16460;SDS011;8341;42.048;24.650;2022-10-16T02:21:40;6.65;;;5.45;;
16460;SDS011;8341;42.048;24.650;2022-10-16T02:24:14;6.78;;;5.70;;
16460;SDS011;8341;42.048;24.650;2022-10-16T02:26:47;6.00;;;5.18;;
16460;SDS011;8341;42.048;24.650;2022-10-16T02:29:21;7.53;;;5.20;;
16460;SDS011;8341;42.048;24.650;2022-10-16T02:31:52;7.47;;;5.32;;
16460;SDS011;8341;42.048;24.650;2022-10-16T02:34:24;6.05;;;5.47;;
16460;SDS011;8341;42.048;24.650;2022-10-16T02:36:52;8.80;;;5.70;;
16460;SDS011;8341;42.048;24.650;2022-10-16T02:39:21;6.93;;;5.45;;
16460;SDS011;8341;42.048;24.650;2022-10-16T02:41:48;5.75;;;5.13;;
16460;SDS011;8341;42.048;24.650;2022-10-16T02:44:16;6.30;;;5.03;;
16460;SDS011;8341;42.048;24.650;2022-10-16T02:46:44;7.72;;;5.32;;
16460;SDS011;8341;42.048;24.650;2022-10-16T02:49:11;5.88;;;5.03;;
16460;SDS011;8341;42.048;24.650;2022-10-16T02:51:38;8.90;;;6.03;;
16460;SDS011;8341;42.048;24.650;2022-10-16T02:54:05;6.45;;;5.35;;
16460;SDS011;8341;42.048;24.650;2022-10-16T02:56:32;6.10;;;5.50;;
16460;SDS011;8341;42.048;24.650;2022-10-16T02:58:59;11.70;;;5.70;;
16460;SDS011;8341;42.048;24.650;2022-10-16T03:01:26;6.65;;;5.93;;
16460;SDS011;8341;42.048;24.650;2022-10-16T03:03:54;7.20;;;5.50;;
16460;SDS011;8341;42.048;24.650;2022-10-16T03:06:21;8.18;;;5.65;;
16460;SDS011;8341;42.048;24.650;2022-10-16T03:08:48;6.00;;;5.35;;
16460;SDS011;8341;42.048;24.650;2022-10-16T03:11:15;6.78;;;5.10;;
16460;SDS011;8341;42.048;24.650;2022-10-16T03:13:42;7.20;;;5.10;;
16460;SDS011;8341;42.048;24.650;2022-10-16T03:16:09;6.13;;;5.38;;
16460;SDS011;8341;42.048;24.650;2022-10-16T03:18:36;7.88;;;5.18;;
16460;SDS011;8341;42.048;24.650;2022-10-16T03:21:05;7.13;;;5.70;;
16460;SDS011;8341;42.048;24.650;2022-10-16T03:23:32;7.55;;;5.28;;
16460;SDS011;8341;42.048;24.650;2022-10-16T03:25:59;7.07;;;5.50;;
16460;SDS011;8341;42.048;24.650;2022-10-16T03:28:26;5.95;;;5.30;;
16460;SDS011;8341;42.048;24.650;2022-10-16T03:30:53;7.35;;;5.65;;
16460;SDS011;8341;42.048;24.650;2022-10-16T03:33:20;6.15;;;5.38;;
16460;SDS011;8341;42.048;24.650;2022-10-16T03:35:50;8.07;;;5.53;;
16460;SDS011;8341;42.048;24.650;2022-10-16T03:38:20;8.48;;;5.95;;
16460;SDS011;8341;42.048;24.650;2022-10-16T03:40:48;8.23;;;5.70;;
16460;SDS011;8341;42.048;24.650;2022-10-16T03:43:15;7.47;;;5.53;;
16460;SDS011;8341;42.048;24.650;2022-10-16T03:45:42;7.43;;;5.85;;
16460;SDS011;8341;42.048;24.650;2022-10-16T03:48:09;6.65;;;5.40;;
16460;SDS011;8341;42.048;24.650;2022-10-16T03:50:36;8.40;;;6.13;;
16460;SDS011;8341;42.048;24.650;2022-10-16T03:53:03;6.18;;;5.32;;
16460;SDS011;8341;42.048;24.650;2022-10-16T03:55:32;10.35;;;6.53;;
16460;SDS011;8341;42.048;24.650;2022-10-16T03:57:59;6.75;;;5.50;;
16460;SDS011;8341;42.048;24.650;2022-10-16T04:00:26;8.02;;;5.82;;
16460;SDS011;8341;42.048;24.650;2022-10-16T04:02:53;6.65;;;5.07;;
16460;SDS011;8341;42.048;24.650;2022-10-16T04:05:20;9.05;;;6.53;;
16460;SDS011;8341;42.048;24.650;2022-10-16T04:07:47;7.80;;;5.70;;
16460;SDS011;8341;42.048;24.650;2022-10-16T04:10:14;7.43;;;5.70;;
16460;SDS011;8341;42.048;24.650;2022-10-16T04:12:42;6.38;;;5.45;;
16460;SDS011;8341;42.048;24.650;2022-10-16T04:15:09;8.10;;;6.15;;
16460;SDS011;8341;42.048;24.650;2022-10-16T04:17:37;8.70;;;5.63;;
16460;SDS011;8341;42.048;24.650;2022-10-16T04:20:04;7.20;;;5.82;;
16460;SDS011;8341;42.048;24.650;2022-10-16T04:22:32;9.05;;;5.53;;
16460;SDS011;8341;42.048;24.650;2022-10-16T04:24:59;8.20;;;5.60;;
16460;SDS011;8341;42.048;24.650;2022-10-16T04:27:26;8.75;;;6.60;;
16460;SDS011;8341;42.048;24.650;2022-10-16T04:29:55;6.82;;;5.90;;
16460;SDS011;8341;42.048;24.650;2022-10-16T04:32:22;7.80;;;5.63;;
16460;SDS011;8341;42.048;24.650;2022-10-16T04:34:49;9.18;;;6.05;;
16460;SDS011;8341;42.048;24.650;2022-10-16T04:37:16;8.18;;;6.18;;
16460;SDS011;8341;42.048;24.650;2022-10-16T04:39:43;9.10;;;6.22;;
16460;SDS011;8341;42.048;24.650;2022-10-16T04:42:10;10.65;;;6.53;;
16460;SDS011;8341;42.048;24.650;2022-10-16T04:44:37;8.85;;;6.07;;
16460;SDS011;8341;42.048;24.650;2022-10-16T04:47:06;6.75;;;6.00;;
16460;SDS011;8341;42.048;24.650;2022-10-16T04:49:33;8.80;;;5.60;;
16460;SDS011;8341;42.048;24.650;2022-10-16T04:52:00;7.10;;;5.55;;
16460;SDS011;8341;42.048;24.650;2022-10-16T04:54:27;8.38;;;6.65;;
16460;SDS011;8341;42.048;24.650;2022-10-16T04:56:54;7.75;;;5.82;;
16460;SDS011;8341;42.048;24.650;2022-10-16T04:59:21;7.43;;;5.80;;
16460;SDS011;8341;42.048;24.650;2022-10-16T05:01:48;8.80;;;7.38;;
16460;SDS011;8341;42.048;24.650;2022-10-16T05:04:17;7.15;;;6.30;;
16460;SDS011;8341;42.048;24.650;2022-10-16T05:06:44;9.05;;;5.80;;
16460;SDS011;8341;42.048;24.650;2022-10-16T05:09:11;6.13;;;5.53;;
16460;SDS011;8341;42.048;24.650;2022-10-16T05:11:38;6.68;;;5.72;;
16460;SDS011;8341;42.048;24.650;2022-10-16T05:14:05;8.02;;;5.88;;
16460;SDS011;8341;42.048;24.650;2022-10-16T05:16:32;6.97;;;6.20;;
16460;SDS011;8341;42.048;24.650;2022-10-16T05:18:59;7.20;;;5.72;;
16460;SDS011;8341;42.048;24.650;2022-10-16T05:21:28;8.57;;;5.80;;
16460;SDS011;8341;42.048;24.650;2022-10-16T05:23:55;6.43;;;5.70;;
16460;SDS011;8341;42.048;24.650;2022-10-16T05:26:22;7.35;;;5.70;;
16460;SDS011;8341;42.048;24.650;2022-10-16T05:28:49;8.15;;;6.38;;
16460;SDS011;8341;42.048;24.650;2022-10-16T05:31:16;8.13;;;5.80;;
16460;SDS011;8341;42.048;24.650;2022-10-16T05:33:43;8.10;;;5.82;;
16460;SDS011;8341;42.048;24.650;2022-10-16T05:36:10;8.32;;;6.57;;
16460;SDS011;8341;42.048;24.650;2022-10-16T05:38:39;8.55;;;6.22;;
16460;SDS011;8341;42.048;24.650;2022-10-16T05:41:06;7.68;;;5.57;;
16460;SDS011;8341;42.048;24.650;2022-10-16T05:43:33;6.20;;;5.30;;
16460;SDS011;8341;42.048;24.650;2022-10-16T05:46:02;9.55;;;7.40;;
16460;SDS011;8341;42.048;24.650;2022-10-16T05:48:30;13.23;;;9.10;;
16460;SDS011;8341;42.048;24.650;2022-10-16T05:50:58;14.93;;;10.45;;
16460;SDS011;8341;42.048;24.650;2022-10-16T05:53:26;12.07;;;7.78;;
16460;SDS011;8341;42.048;24.650;2022-10-16T05:55:56;10.15;;;7.65;;
16460;SDS011;8341;42.048;24.650;2022-10-16T05:58:23;6.78;;;5.70;;
16460;SDS011;8341;42.048;24.650;2022-10-16T06:00:54;8.70;;;5.80;;
16460;SDS011;8341;42.048;24.650;2022-10-16T06:03:22;5.90;;;5.32;;
16460;SDS011;8341;42.048;24.650;2022-10-16T06:05:49;17.67;;;12.70;;
16460;SDS011;8341;42.048;24.650;2022-10-16T06:08:17;14.32;;;10.05;;
16460;SDS011;8341;42.048;24.650;2022-10-16T06:10:44;8.00;;;6.00;;
16460;SDS011;8341;42.048;24.650;2022-10-16T06:13:13;28.70;;;17.33;;
16460;SDS011;8341;42.048;24.650;2022-10-16T06:15:41;27.08;;;16.65;;
16460;SDS011;8341;42.048;24.650;2022-10-16T06:18:09;27.23;;;18.02;;
16460;SDS011;8341;42.048;24.650;2022-10-16T06:20:36;25.00;;;16.52;;
16460;SDS011;8341;42.048;24.650;2022-10-16T06:23:03;35.50;;;19.67;;
16460;SDS011;8341;42.048;24.650;2022-10-16T06:25:30;17.58;;;9.70;;
16460;SDS011;8341;42.048;24.650;2022-10-16T06:27:58;49.38;;;28.60;;
16460;SDS011;8341;42.048;24.650;2022-10-16T06:30:26;34.90;;;19.70;;
16460;SDS011;8341;42.048;24.650;2022-10-16T06:32:53;153.48;;;84.45;;
16460;SDS011;8341;42.048;24.650;2022-10-16T06:35:20;212.15;;;116.63;;
16460;SDS011;8341;42.048;24.650;2022-10-16T06:37:47;160.10;;;104.38;;
16460;SDS011;8341;42.048;24.650;2022-10-16T06:40:14;61.80;;;42.45;;
16460;SDS011;8341;42.048;24.650;2022-10-16T06:42:41;28.25;;;20.38;;
16460;SDS011;8341;42.048;24.650;2022-10-16T06:45:09;16.52;;;11.55;;
16460;SDS011;8341;42.048;24.650;2022-10-16T06:47:37;15.85;;;11.07;;
16460;SDS011;8341;42.048;24.650;2022-10-16T06:50:05;21.90;;;11.95;;
16460;SDS011;8341;42.048;24.650;2022-10-16T06:52:32;8.63;;;6.60;;
16460;SDS011;8341;42.048;24.650;2022-10-16T06:55:00;18.08;;;12.20;;
16460;SDS011;8341;42.048;24.650;2022-10-16T06:57:27;12.98;;;8.60;;
16460;SDS011;8341;42.048;24.650;2022-10-16T06:59:54;6.38;;;5.50;;
16460;SDS011;8341;42.048;24.650;2022-10-16T07:02:21;8.55;;;5.80;;
16460;SDS011;8341;42.048;24.650;2022-10-16T07:04:50;5.95;;;5.35;;
16460;SDS011;8341;42.048;24.650;2022-10-16T07:07:17;8.55;;;5.60;;
16460;SDS011;8341;42.048;24.650;2022-10-16T07:09:44;8.70;;;6.10;;
16460;SDS011;8341;42.048;24.650;2022-10-16T07:12:11;10.15;;;5.78;;
16460;SDS011;8341;42.048;24.650;2022-10-16T07:14:38;8.43;;;6.30;;
16460;SDS011;8341;42.048;24.650;2022-10-16T07:17:05;7.30;;;6.18;;
16460;SDS011;8341;42.048;24.650;2022-10-16T07:19:32;10.57;;;7.80;;
16460;SDS011;8341;42.048;24.650;2022-10-16T07:22:00;17.10;;;10.25;;
16460;SDS011;8341;42.048;24.650;2022-10-16T07:24:28;15.38;;;8.90;;
16460;SDS011;8341;42.048;24.650;2022-10-16T07:26:55;17.95;;;12.02;;
16460;SDS011;8341;42.048;24.650;2022-10-16T07:29:22;10.43;;;8.18;;
16460;SDS011;8341;42.048;24.650;2022-10-16T07:31:49;10.45;;;7.93;;
16460;SDS011;8341;42.048;24.650;2022-10-16T07:34:16;16.00;;;12.70;;
16460;SDS011;8341;42.048;24.650;2022-10-16T07:36:46;7.88;;;6.68;;
16460;SDS011;8341;42.048;24.650;2022-10-16T07:39:16;10.88;;;6.57;;
16460;SDS011;8341;42.048;24.650;2022-10-16T07:41:43;9.52;;;7.43;;
16460;SDS011;8341;42.048;24.650;2022-10-16T07:44:10;10.20;;;8.32;;
16460;SDS011;8341;42.048;24.650;2022-10-16T07:46:37;18.02;;;10.57;;
16460;SDS011;8341;42.048;24.650;2022-10-16T07:49:04;8.15;;;6.47;;
16460;SDS011;8341;42.048;24.650;2022-10-16T07:51:31;16.10;;;11.13;;
16460;SDS011;8341;42.048;24.650;2022-10-16T07:53:58;8.82;;;7.25;;
16460;SDS011;8341;42.048;24.650;2022-10-16T07:56:27;10.98;;;7.18;;
16460;SDS011;8341;42.048;24.650;2022-10-16T07:58:54;22.27;;;13.30;;
16460;SDS011;8341;42.048;24.650;2022-10-16T08:01:21;72.00;;;38.97;;
16460;SDS011;8341;42.048;24.650;2022-10-16T08:03:49;17.50;;;11.32;;
16460;SDS011;8341;42.048;24.650;2022-10-16T08:06:17;13.68;;;10.15;;
16460;SDS011;8341;42.048;24.650;2022-10-16T08:08:44;25.98;;;16.70;;
16460;SDS011;8341;42.048;24.650;2022-10-16T08:11:12;28.20;;;20.48;;
16460;SDS011;8341;42.048;24.650;2022-10-16T08:13:41;19.55;;;12.65;;
16460;SDS011;8341;42.048;24.650;2022-10-16T08:16:09;13.02;;;8.73;;
16460;SDS011;8341;42.048;24.650;2022-10-16T08:18:37;13.20;;;11.00;;
16460;SDS011;8341;42.048;24.650;2022-10-16T08:21:05;12.07;;;9.23;;
16460;SDS011;8341;42.048;24.650;2022-10-16T08:23:34;7.97;;;6.63;;
16460;SDS011;8341;42.048;24.650;2022-10-16T08:26:04;12.05;;;8.93;;
16460;SDS011;8341;42.048;24.650;2022-10-16T08:28:32;8.02;;;6.60;;
16460;SDS011;8341;42.048;24.650;2022-10-16T08:31:08;8.55;;;7.32;;
16460;SDS011;8341;42.048;24.650;2022-10-16T08:33:36;7.90;;;7.10;;
16460;SDS011;8341;42.048;24.650;2022-10-16T08:36:04;8.88;;;7.72;;
16460;SDS011;8341;42.048;24.650;2022-10-16T08:38:32;8.10;;;6.65;;
16460;SDS011;8341;42.048;24.650;2022-10-16T08:41:02;9.18;;;6.50;;
16460;SDS011;8341;42.048;24.650;2022-10-16T08:43:56;14.68;;;10.20;;
16460;SDS011;8341;42.048;24.650;2022-10-16T08:46:37;11.90;;;8.20;;
16460;SDS011;8341;42.048;24.650;2022-10-16T08:49:12;11.13;;;8.27;;
16460;SDS011;8341;42.048;24.650;2022-10-16T08:51:40;13.20;;;9.80;;
16460;SDS011;8341;42.048;24.650;2022-10-16T08:54:13;9.02;;;7.18;;
16460;SDS011;8341;42.048;24.650;2022-10-16T08:56:49;9.60;;;7.68;;
16460;SDS011;8341;42.048;24.650;2022-10-16T08:59:16;7.70;;;6.45;;
16460;SDS011;8341;42.048;24.650;2022-10-16T09:01:46;7.55;;;6.15;;
16460;SDS011;8341;42.048;24.650;2022-10-16T09:07:19;12.80;;;8.80;;
16460;SDS011;8341;42.048;24.650;2022-10-16T09:09:59;9.23;;;5.88;;
16460;SDS011;8341;42.048;24.650;2022-10-16T09:12:38;13.48;;;9.77;;
16460;SDS011;8341;42.048;24.650;2022-10-16T09:15:14;9.20;;;6.15;;
16460;SDS011;8341;42.048;24.650;2022-10-16T09:17:54;9.75;;;7.18;;
16460;SDS011;8341;42.048;24.650;2022-10-16T09:20:31;8.55;;;6.05;;
16460;SDS011;8341;42.048;24.650;2022-10-16T09:23:10;7.10;;;6.18;;
16460;SDS011;8341;42.048;24.650;2022-10-16T09:25:43;6.45;;;5.85;;
16460;SDS011;8341;42.048;24.650;2022-10-16T09:28:12;8.40;;;6.28;;
16460;SDS011;8341;42.048;24.650;2022-10-16T09:30:40;9.18;;;6.40;;
16460;SDS011;8341;42.048;24.650;2022-10-16T09:33:09;11.10;;;6.25;;
16460;SDS011;8341;42.048;24.650;2022-10-16T09:35:38;7.90;;;6.13;;
16460;SDS011;8341;42.048;24.650;2022-10-16T09:38:07;8.82;;;7.40;;
16460;SDS011;8341;42.048;24.650;2022-10-16T09:40:35;14.98;;;6.53;;
16460;SDS011;8341;42.048;24.650;2022-10-16T09:43:07;8.10;;;6.10;;
16460;SDS011;8341;42.048;24.650;2022-10-16T09:45:53;8.77;;;6.35;;
16460;SDS011;8341;42.048;24.650;2022-10-16T09:48:23;8.55;;;5.65;;
16460;SDS011;8341;42.048;24.650;2022-10-16T09:50:57;7.70;;;6.88;;
16460;SDS011;8341;42.048;24.650;2022-10-16T09:53:27;7.40;;;5.88;;
16460;SDS011;8341;42.048;24.650;2022-10-16T09:56:05;7.38;;;6.10;;
16460;SDS011;8341;42.048;24.650;2022-10-16T09:58:32;8.93;;;5.95;;
16460;SDS011;8341;42.048;24.650;2022-10-16T10:00:59;9.05;;;5.90;;
16460;SDS011;8341;42.048;24.650;2022-10-16T10:06:16;10.88;;;6.25;;
16460;SDS011;8341;42.048;24.650;2022-10-16T10:08:54;8.40;;;6.57;;
16460;SDS011;8341;42.048;24.650;2022-10-16T10:11:42;6.85;;;5.88;;
16460;SDS011;8341;42.048;24.650;2022-10-16T10:14:16;8.32;;;6.05;;
16460;SDS011;8341;42.048;24.650;2022-10-16T10:16:49;9.15;;;6.70;;
16460;SDS011;8341;42.048;24.650;2022-10-16T10:19:19;7.22;;;5.40;;
16460;SDS011;8341;42.048;24.650;2022-10-16T10:21:48;8.50;;;5.93;;
16460;SDS011;8341;42.048;24.650;2022-10-16T10:24:16;6.82;;;5.82;;
16460;SDS011;8341;42.048;24.650;2022-10-16T10:26:49;6.10;;;5.50;;
16460;SDS011;8341;42.048;24.650;2022-10-16T10:29:25;6.47;;;5.55;;
16460;SDS011;8341;42.048;24.650;2022-10-16T10:32:04;6.15;;;5.50;;
16460;SDS011;8341;42.048;24.650;2022-10-16T10:34:44;5.43;;;4.90;;
16460;SDS011;8341;42.048;24.650;2022-10-16T10:37:28;6.57;;;5.32;;
16460;SDS011;8341;42.048;24.650;2022-10-16T10:40:06;6.68;;;5.05;;
16460;SDS011;8341;42.048;24.650;2022-10-16T10:42:41;5.90;;;5.35;;
16460;SDS011;8341;42.048;24.650;2022-10-16T10:45:20;5.60;;;4.88;;
16460;SDS011;8341;42.048;24.650;2022-10-16T10:47:56;8.50;;;6.70;;
16460;SDS011;8341;42.048;24.650;2022-10-16T10:50:43;5.10;;;4.63;;
16460;SDS011;8341;42.048;24.650;2022-10-16T10:53:21;4.88;;;4.35;;
16460;SDS011;8341;42.048;24.650;2022-10-16T10:56:00;5.32;;;4.32;;
16460;SDS011;8341;42.048;24.650;2022-10-16T10:58:44;5.30;;;4.80;;
16460;SDS011;8341;42.048;24.650;2022-10-16T11:01:45;5.80;;;4.50;;
16460;SDS011;8341;42.048;24.650;2022-10-16T11:04:27;7.60;;;4.82;;
16460;SDS011;8341;42.048;24.650;2022-10-16T11:07:15;5.10;;;3.95;;
16460;SDS011;8341;42.048;24.650;2022-10-16T11:09:47;4.78;;;4.10;;
16460;SDS011;8341;42.048;24.650;2022-10-16T11:12:19;4.55;;;3.63;;
16460;SDS011;8341;42.048;24.650;2022-10-16T11:14:50;4.88;;;3.38;;
16460;SDS011;8341;42.048;24.650;2022-10-16T11:17:23;3.90;;;3.50;;
16460;SDS011;8341;42.048;24.650;2022-10-16T11:19:55;6.05;;;3.60;;
16460;SDS011;8341;42.048;24.650;2022-10-16T11:22:29;5.30;;;3.40;;
16460;SDS011;8341;42.048;24.650;2022-10-16T11:25:02;4.00;;;3.60;;
16460;SDS011;8341;42.048;24.650;2022-10-16T11:27:40;4.57;;;3.45;;
16460;SDS011;8341;42.048;24.650;2022-10-16T11:30:14;4.53;;;3.30;;
16460;SDS011;8341;42.048;24.650;2022-10-16T11:32:55;5.82;;;3.95;;
16460;SDS011;8341;42.048;24.650;2022-10-16T11:35:36;4.28;;;3.88;;
16460;SDS011;8341;42.048;24.650;2022-10-16T11:38:12;4.97;;;3.38;;
16460;SDS011;8341;42.048;24.650;2022-10-16T11:40:56;7.47;;;3.88;;
16460;SDS011;8341;42.048;24.650;2022-10-16T11:43:28;3.97;;;3.60;;
16460;SDS011;8341;42.048;24.650;2022-10-16T11:45:59;3.30;;;2.78;;
16460;SDS011;8341;42.048;24.650;2022-10-16T11:48:32;2.63;;;2.42;;
16460;SDS011;8341;42.048;24.650;2022-10-16T11:51:06;3.92;;;2.60;;
16460;SDS011;8341;42.048;24.650;2022-10-16T11:53:44;3.55;;;3.25;;
16460;SDS011;8341;42.048;24.650;2022-10-16T11:56:18;4.63;;;3.75;;
16460;SDS011;8341;42.048;24.650;2022-10-16T11:58:51;5.75;;;3.85;;
16460;SDS011;8341;42.048;24.650;2022-10-16T12:01:26;5.65;;;3.60;;
16460;SDS011;8341;42.048;24.650;2022-10-16T12:04:04;3.70;;;3.40;;
16460;SDS011;8341;42.048;24.650;2022-10-16T12:06:41;4.53;;;3.78;;
16460;SDS011;8341;42.048;24.650;2022-10-16T12:09:25;4.53;;;4.03;;
16460;SDS011;8341;42.048;24.650;2022-10-16T12:11:54;4.00;;;3.65;;
16460;SDS011;8341;42.048;24.650;2022-10-16T12:14:32;3.90;;;3.60;;
16460;SDS011;8341;42.048;24.650;2022-10-16T12:17:02;5.70;;;3.63;;
16460;SDS011;8341;42.048;24.650;2022-10-16T12:19:56;5.00;;;3.45;;
16460;SDS011;8341;42.048;24.650;2022-10-16T12:22:25;4.70;;;3.42;;
16460;SDS011;8341;42.048;24.650;2022-10-16T12:24:56;4.45;;;3.20;;
16460;SDS011;8341;42.048;24.650;2022-10-16T12:27:26;3.88;;;3.35;;
16460;SDS011;8341;42.048;24.650;2022-10-16T12:29:56;5.53;;;3.70;;
16460;SDS011;8341;42.048;24.650;2022-10-16T12:32:28;5.10;;;4.05;;
16460;SDS011;8341;42.048;24.650;2022-10-16T12:34:58;5.22;;;3.67;;
16460;SDS011;8341;42.048;24.650;2022-10-16T12:37:27;4.20;;;3.78;;
16460;SDS011;8341;42.048;24.650;2022-10-16T12:39:59;7.20;;;4.30;;
16460;SDS011;8341;42.048;24.650;2022-10-16T12:42:39;4.70;;;3.67;;
16460;SDS011;8341;42.048;24.650;2022-10-16T12:45:21;3.97;;;3.58;;
16460;SDS011;8341;42.048;24.650;2022-10-16T12:47:52;6.60;;;4.00;;
16460;SDS011;8341;42.048;24.650;2022-10-16T12:53:17;3.53;;;3.10;;
16460;SDS011;8341;42.048;24.650;2022-10-16T12:55:50;5.72;;;3.95;;
16460;SDS011;8341;42.048;24.650;2022-10-16T12:58:33;4.20;;;3.80;;
16460;SDS011;8341;42.048;24.650;2022-10-16T13:01:16;4.93;;;3.50;;
16460;SDS011;8341;42.048;24.650;2022-10-16T13:03:57;4.03;;;3.60;;
16460;SDS011;8341;42.048;24.650;2022-10-16T13:06:36;3.60;;;3.30;;
16460;SDS011;8341;42.048;24.650;2022-10-16T13:09:15;4.28;;;3.65;;
16460;SDS011;8341;42.048;24.650;2022-10-16T13:14:54;3.83;;;3.53;;
16460;SDS011;8341;42.048;24.650;2022-10-16T13:17:35;6.22;;;3.63;;
16460;SDS011;8341;42.048;24.650;2022-10-16T13:20:11;4.13;;;3.50;;
16460;SDS011;8341;42.048;24.650;2022-10-16T13:22:47;6.10;;;3.67;;
16460;SDS011;8341;42.048;24.650;2022-10-16T13:25:25;3.78;;;3.47;;
16460;SDS011;8341;42.048;24.650;2022-10-16T13:28:03;4.90;;;4.35;;
16460;SDS011;8341;42.048;24.650;2022-10-16T13:30:32;4.22;;;3.60;;
16460;SDS011;8341;42.048;24.650;2022-10-16T13:33:06;4.03;;;3.63;;
16460;SDS011;8341;42.048;24.650;2022-10-16T13:35:46;4.35;;;3.92;;
16460;SDS011;8341;42.048;24.650;2022-10-16T13:38:16;3.85;;;3.55;;
16460;SDS011;8341;42.048;24.650;2022-10-16T13:40:48;4.45;;;3.53;;
16460;SDS011;8341;42.048;24.650;2022-10-16T13:43:18;3.70;;;3.30;;
16460;SDS011;8341;42.048;24.650;2022-10-16T13:45:55;4.50;;;3.70;;
16460;SDS011;8341;42.048;24.650;2022-10-16T13:48:23;4.25;;;3.53;;
16460;SDS011;8341;42.048;24.650;2022-10-16T13:51:04;6.47;;;3.70;;
16460;SDS011;8341;42.048;24.650;2022-10-16T13:53:33;4.68;;;3.78;;
16460;SDS011;8341;42.048;24.650;2022-10-16T13:56:02;5.20;;;3.85;;
16460;SDS011;8341;42.048;24.650;2022-10-16T13:58:32;5.38;;;4.25;;
16460;SDS011;8341;42.048;24.650;2022-10-16T14:01:01;4.82;;;3.67;;
16460;SDS011;8341;42.048;24.650;2022-10-16T14:03:31;5.93;;;3.70;;
16460;SDS011;8341;42.048;24.650;2022-10-16T14:06:01;4.32;;;3.55;;
16460;SDS011;8341;42.048;24.650;2022-10-16T14:08:30;5.90;;;3.97;;
16460;SDS011;8341;42.048;24.650;2022-10-16T14:10:58;3.90;;;3.50;;
16460;SDS011;8341;42.048;24.650;2022-10-16T14:13:31;5.15;;;3.85;;
16460;SDS011;8341;42.048;24.650;2022-10-16T14:16:05;4.47;;;3.65;;
16460;SDS011;8341;42.048;24.650;2022-10-16T14:18:33;3.70;;;3.40;;
16460;SDS011;8341;42.048;24.650;2022-10-16T14:21:04;4.78;;;3.78;;
16460;SDS011;8341;42.048;24.650;2022-10-16T14:23:34;4.75;;;3.83;;
16460;SDS011;8341;42.048;24.650;2022-10-16T14:26:12;5.35;;;4.85;;
16460;SDS011;8341;42.048;24.650;2022-10-16T14:28:47;6.63;;;5.28;;
16460;SDS011;8341;42.048;24.650;2022-10-16T14:33:58;6.00;;;5.40;;
16460;SDS011;8341;42.048;24.650;2022-10-16T14:36:26;5.47;;;4.35;;
16460;SDS011;8341;42.048;24.650;2022-10-16T14:39:02;5.10;;;4.35;;
16460;SDS011;8341;42.048;24.650;2022-10-16T14:41:31;5.95;;;4.38;;
16460;SDS011;8341;42.048;24.650;2022-10-16T14:44:10;4.82;;;4.20;;
16460;SDS011;8341;42.048;24.650;2022-10-16T14:46:39;5.75;;;3.75;;
16460;SDS011;8341;42.048;24.650;2022-10-16T14:49:13;18.38;;;8.65;;
16460;SDS011;8341;42.048;24.650;2022-10-16T14:51:44;10.88;;;7.80;;
16460;SDS011;8341;42.048;24.650;2022-10-16T14:54:11;6.95;;;5.38;;
16460;SDS011;8341;42.048;24.650;2022-10-16T14:56:42;5.40;;;4.57;;
16460;SDS011;8341;42.048;24.650;2022-10-16T14:59:14;6.47;;;5.28;;
16460;SDS011;8341;42.048;24.650;2022-10-16T15:01:44;10.30;;;7.68;;
16460;SDS011;8341;42.048;24.650;2022-10-16T15:04:12;15.90;;;12.65;;
16460;SDS011;8341;42.048;24.650;2022-10-16T15:06:39;13.68;;;11.77;;
16460;SDS011;8341;42.048;24.650;2022-10-16T15:09:06;12.18;;;10.73;;
16460;SDS011;8341;42.048;24.650;2022-10-16T15:11:33;4.93;;;4.30;;
16460;SDS011;8341;42.048;24.650;2022-10-16T15:14:01;5.70;;;5.00;;
16460;SDS011;8341;42.048;24.650;2022-10-16T15:16:30;6.80;;;5.43;;
16460;SDS011;8341;42.048;24.650;2022-10-16T15:18:57;11.32;;;5.95;;